createdAt,value
2022-11-12T00:00:06.037Z,14.52
2022-11-12T00:03:26.866Z,14.71
2022-11-12T00:06:47.622Z,14.51
2022-11-12T00:10:09.066Z,14.63
2022-11-12T00:13:29.825Z,14.40
2022-11-12T00:16:50.203Z,14.39
2022-11-12T00:20:11.021Z,14.37
2022-11-12T00:23:31.508Z,14.22
2022-11-12T00:26:51.767Z,14.25
2022-11-12T00:30:12.556Z,14.31
2022-11-12T00:33:33.030Z,14.13
2022-11-12T00:36:54.224Z,14.01
2022-11-12T00:40:15.448Z,14.06
2022-11-12T00:43:36.148Z,14.12
2022-11-12T00:46:57.241Z,14.08
2022-11-12T00:50:17.943Z,14.11
2022-11-12T00:53:38.422Z,14.21
2022-11-12T00:56:58.810Z,14.43
2022-11-12T01:00:20.861Z,14.50
2022-11-12T01:03:41.437Z,14.74
2022-11-12T01:07:02.358Z,14.74
2022-11-12T01:10:23.313Z,14.76
2022-11-12T01:13:45.428Z,14.73
2022-11-12T01:17:06.301Z,14.46
2022-11-12T01:20:26.577Z,14.51
2022-11-12T01:23:46.959Z,14.72
2022-11-12T01:27:07.525Z,14.70
2022-11-12T01:30:28.065Z,14.39
2022-11-12T01:33:50.488Z,14.28
2022-11-12T01:37:10.790Z,14.40
2022-11-12T01:40:32.883Z,14.58
2022-11-12T01:44:17.346Z,14.53
2022-11-12T01:47:38.093Z,14.54
2022-11-12T01:50:58.408Z,14.27
2022-11-12T01:54:19.230Z,14.48
2022-11-12T01:57:48.810Z,14.63
2022-11-12T02:01:09.133Z,14.29
2022-11-12T02:04:29.970Z,14.69
2022-11-12T02:07:50.583Z,14.48
2022-11-12T02:11:19.970Z,14.35
2022-11-12T02:14:40.384Z,14.47
2022-11-12T02:18:00.867Z,14.54
2022-11-12T02:21:23.334Z,14.77
2022-11-12T02:24:43.799Z,14.46
2022-11-12T02:28:07.156Z,14.17
2022-11-12T02:31:27.814Z,14.30
2022-11-12T02:34:48.380Z,14.17
2022-11-12T02:38:09.278Z,13.96
2022-11-12T02:41:29.877Z,14.06
2022-11-12T02:44:50.133Z,14.29
2022-11-12T02:48:13.955Z,14.42
2022-11-12T02:51:37.042Z,14.00
2022-11-12T02:54:57.490Z,13.92
2022-11-12T02:58:17.803Z,13.64
2022-11-12T03:01:38.212Z,13.67
2022-11-12T03:04:58.585Z,13.76
2022-11-12T03:08:18.926Z,13.66
2022-11-12T03:11:39.239Z,13.79
2022-11-12T03:15:00.067Z,13.81
2022-11-12T03:18:20.633Z,13.77
2022-11-12T03:21:41.226Z,13.31
2022-11-12T03:25:01.665Z,13.33
2022-11-12T03:28:21.988Z,13.29
2022-11-12T03:31:42.489Z,13.00
2022-11-12T03:35:03.045Z,13.14
2022-11-12T03:38:23.628Z,13.00
2022-11-12T03:41:44.667Z,12.94
2022-11-12T03:45:06.223Z,13.10
2022-11-12T03:48:26.908Z,13.17
2022-11-12T03:51:47.576Z,13.24
2022-11-12T03:55:08.545Z,13.18
2022-11-12T03:58:29.225Z,13.37
2022-11-12T04:01:49.864Z,13.59
2022-11-12T04:05:29.318Z,13.39
2022-11-12T04:08:50.144Z,13.24
2022-11-12T04:12:29.411Z,12.94
2022-11-12T04:16:10.126Z,12.88
2022-11-12T04:19:49.114Z,13.01
2022-11-12T04:23:10.014Z,13.20
2022-11-12T04:26:30.416Z,13.36
2022-11-12T04:30:09.515Z,13.69
2022-11-12T04:33:30.160Z,13.56
2022-11-12T04:36:51.181Z,13.56
2022-11-12T04:40:35.239Z,13.80
2022-11-12T04:44:14.640Z,13.53
2022-11-12T04:47:38.198Z,12.75
2022-11-12T04:51:28.503Z,13.14
2022-11-12T04:54:49.136Z,13.15
2022-11-12T04:58:09.434Z,12.80
2022-11-12T05:01:29.807Z,12.68
2022-11-12T05:04:50.297Z,12.59
2022-11-12T05:08:10.698Z,12.53
2022-11-12T05:11:31.104Z,12.61
2022-11-12T05:14:51.524Z,12.44
2022-11-12T05:18:11.824Z,12.39
2022-11-12T05:21:50.726Z,12.14
2022-11-12T05:25:11.494Z,12.21
2022-11-12T05:28:36.941Z,12.13
2022-11-12T05:31:57.529Z,12.23
2022-11-12T05:35:17.995Z,11.89
2022-11-12T05:38:39.223Z,11.91
2022-11-12T05:42:14.054Z,12.08
2022-11-12T05:45:34.809Z,12.17
2022-11-12T05:48:55.165Z,12.27
2022-11-12T05:52:15.725Z,12.38
2022-11-12T05:55:37.225Z,12.14
2022-11-12T05:58:58.273Z,12.07
2022-11-12T06:02:18.699Z,12.27
2022-11-12T06:05:39.128Z,12.30
2022-11-12T06:08:59.468Z,12.79
2022-11-12T06:12:19.950Z,12.25
2022-11-12T06:15:40.438Z,12.47
2022-11-12T06:19:01.106Z,12.42
2022-11-12T06:22:21.567Z,12.18
2022-11-12T06:25:41.937Z,12.31
2022-11-12T06:29:02.292Z,12.42
2022-11-12T06:32:22.629Z,12.58
2022-11-12T06:35:43.397Z,12.63
2022-11-12T06:39:04.030Z,12.74
2022-11-12T06:42:24.502Z,12.80
2022-11-12T06:45:44.841Z,12.91
2022-11-12T06:49:05.156Z,12.37
2022-11-12T06:52:25.621Z,12.15
2022-11-12T06:55:46.268Z,11.88
2022-11-12T06:59:06.638Z,11.82
2022-11-12T07:02:27.090Z,11.73
2022-11-12T07:05:47.541Z,11.70
2022-11-12T07:09:08.073Z,11.42
2022-11-12T07:12:29.461Z,11.59
2022-11-12T07:15:50.272Z,11.55
2022-11-12T07:19:11.636Z,11.65
2022-11-12T07:22:34.495Z,11.26
2022-11-12T07:26:01.881Z,11.53
2022-11-12T07:29:42.585Z,11.28
2022-11-12T07:33:03.212Z,11.10
2022-11-12T07:36:23.669Z,11.17
2022-11-12T07:39:44.198Z,11.58
2022-11-12T07:43:04.591Z,11.39
2022-11-12T07:46:26.873Z,11.74
2022-11-12T07:49:47.353Z,11.73
2022-11-12T07:53:07.626Z,11.81
2022-11-12T07:56:28.740Z,11.40
2022-11-12T07:59:49.254Z,11.22
2022-11-12T08:03:09.739Z,11.31
2022-11-12T08:06:30.749Z,11.27
2022-11-12T08:09:51.222Z,11.46
2022-11-12T08:13:12.140Z,11.33
2022-11-12T08:16:32.681Z,11.32
2022-11-12T08:19:55.328Z,11.27
2022-11-12T08:23:15.615Z,11.28
2022-11-12T08:26:36.108Z,11.60
2022-11-12T08:29:56.499Z,11.96
2022-11-12T08:33:16.870Z,11.84
2022-11-12T08:36:37.458Z,12.05
2022-11-12T08:39:58.226Z,12.31
2022-11-12T08:43:18.584Z,12.55
2022-11-12T08:46:39.107Z,12.65
2022-11-12T08:49:59.530Z,12.64
2022-11-12T08:53:21.508Z,12.52
2022-11-12T08:56:42.076Z,12.13
2022-11-12T09:00:02.764Z,12.48
2022-11-12T09:03:25.180Z,12.55
2022-11-12T09:06:49.863Z,12.43
2022-11-12T09:10:13.473Z,11.97
2022-11-12T09:13:34.399Z,11.83
2022-11-12T09:16:55.304Z,12.30
2022-11-12T09:20:15.838Z,11.76
2022-11-12T09:23:36.769Z,11.93
2022-11-12T09:26:57.095Z,11.90
2022-11-12T09:30:17.439Z,12.29
2022-11-12T09:33:37.836Z,12.49
2022-11-12T09:36:58.241Z,12.79
2022-11-12T09:40:19.473Z,13.07
2022-11-12T09:44:06.064Z,12.50
2022-11-12T09:47:38.681Z,12.47
2022-11-12T09:51:26.093Z,12.28
2022-11-12T09:54:47.046Z,12.96
2022-11-12T09:58:14.543Z,13.19
2022-11-12T10:01:55.319Z,12.76
2022-11-12T10:05:29.123Z,12.58
2022-11-12T10:09:05.451Z,12.84
2022-11-12T10:12:48.893Z,13.03
2022-11-12T10:16:43.569Z,13.23
2022-11-12T10:20:25.805Z,12.68
2022-11-12T10:23:50.735Z,12.38
2022-11-12T10:27:23.077Z,12.16
2022-11-12T10:30:43.353Z,12.19
2022-11-12T10:34:23.785Z,12.40
2022-11-12T10:38:02.763Z,12.33
2022-11-12T10:41:32.009Z,11.97
2022-11-12T10:44:52.708Z,12.15
2022-11-12T10:48:33.501Z,12.29
2022-11-12T10:51:59.153Z,12.88
2022-11-12T10:55:22.683Z,13.11
2022-11-12T10:58:43.049Z,13.11
2022-11-12T11:02:03.597Z,12.83
2022-11-12T11:05:38.241Z,12.81
2022-11-12T11:09:13.842Z,12.91
2022-11-12T11:12:34.728Z,13.06
2022-11-12T11:16:07.006Z,13.01
2022-11-12T11:19:41.591Z,12.76
2022-11-12T11:23:26.784Z,12.96
2022-11-12T11:27:23.281Z,13.07
2022-11-12T11:31:21.462Z,12.31
2022-11-12T11:34:51.717Z,12.39
2022-11-12T11:38:39.639Z,12.68
2022-11-12T11:42:18.286Z,12.89
2022-11-12T11:46:12.092Z,12.83
2022-11-12T11:50:08.549Z,12.70
2022-11-12T11:53:44.156Z,12.65
2022-11-12T11:57:16.001Z,12.11
2022-11-12T12:00:46.070Z,12.59
2022-11-12T12:04:47.794Z,12.57
2022-11-12T12:09:01.463Z,12.63
2022-11-12T12:12:52.878Z,12.40
2022-11-12T12:16:38.209Z,12.59
2022-11-12T12:20:30.303Z,12.31
2022-11-12T12:24:18.888Z,12.66
2022-11-12T12:27:54.865Z,13.50
2022-11-12T12:31:18.851Z,13.89
2022-11-12T12:34:43.670Z,13.58
2022-11-12T12:38:35.825Z,14.57
2022-11-12T12:42:10.056Z,14.59
2022-11-12T12:45:38.599Z,14.45
2022-11-12T12:48:59.009Z,14.58
2022-11-12T12:52:19.404Z,14.67
2022-11-12T12:55:53.840Z,17.55
2022-11-12T12:59:22.871Z,20.19
2022-11-12T13:02:43.080Z,19.33
2022-11-12T13:06:27.573Z,20.04
2022-11-12T13:09:48.084Z,16.12
2022-11-12T13:13:17.684Z,15.14
2022-11-12T13:16:51.094Z,14.95
2022-11-12T13:20:32.971Z,14.63
2022-11-12T13:24:07.871Z,14.17
2022-11-12T13:27:43.468Z,14.03
2022-11-12T13:31:04.353Z,14.33
2022-11-12T13:34:31.474Z,14.33
2022-11-12T13:38:11.962Z,14.32
2022-11-12T13:41:58.620Z,14.49
2022-11-12T13:45:26.185Z,14.56
2022-11-12T13:49:03.521Z,13.85
2022-11-12T13:52:23.935Z,14.02
2022-11-12T13:55:52.496Z,14.64
2022-11-12T13:59:18.654Z,20.31
2022-11-12T14:02:41.665Z,21.56
2022-11-12T14:06:14.249Z,20.99
2022-11-12T14:09:34.701Z,16.15
2022-11-12T14:13:07.119Z,15.39
2022-11-12T14:16:33.358Z,17.39
2022-11-12T14:20:30.614Z,16.50
2022-11-12T14:23:51.234Z,20.62
2022-11-12T14:27:31.281Z,20.91
2022-11-12T14:30:51.987Z,19.99
2022-11-12T14:34:32.970Z,19.85
2022-11-12T14:38:19.205Z,20.09
2022-11-12T14:41:41.492Z,19.48
2022-11-12T14:45:02.488Z,20.70
2022-11-12T14:48:22.970Z,19.99
2022-11-12T14:52:17.146Z,20.05
2022-11-12T14:55:38.049Z,19.06
2022-11-12T14:58:58.469Z,20.71
2022-11-12T15:02:50.338Z,20.17
2022-11-12T15:06:13.226Z,20.09
2022-11-12T15:09:38.497Z,19.40
2022-11-12T15:13:19.326Z,18.99
2022-11-12T15:16:39.841Z,18.27
2022-11-12T15:20:14.009Z,18.84
2022-11-12T15:23:34.216Z,18.56
2022-11-12T15:26:55.136Z,18.40
2022-11-12T15:30:25.821Z,18.22
2022-11-12T15:33:46.504Z,17.36
2022-11-12T15:37:33.517Z,17.43
2022-11-12T15:40:57.572Z,17.05
2022-11-12T15:44:18.208Z,16.55
2022-11-12T15:47:38.548Z,15.53
2022-11-12T15:50:58.856Z,14.73
2022-11-12T15:54:19.198Z,13.91
2022-11-12T15:57:48.772Z,13.18
2022-11-12T16:01:11.125Z,12.64
2022-11-12T16:04:31.877Z,12.18
2022-11-12T16:07:52.353Z,12.34
2022-11-12T16:11:32.938Z,12.34
2022-11-12T16:14:53.316Z,11.96
2022-11-12T16:18:13.746Z,11.77
2022-11-12T16:21:34.210Z,11.49
2022-11-12T16:24:54.543Z,11.47
2022-11-12T16:28:18.853Z,11.49
2022-11-12T16:31:43.017Z,11.52
2022-11-12T16:35:03.484Z,11.44
2022-11-12T16:38:25.835Z,11.27
2022-11-12T16:41:46.450Z,11.47
2022-11-12T16:45:07.313Z,11.44
2022-11-12T16:48:27.777Z,11.42
2022-11-12T16:51:49.018Z,11.19
2022-11-12T16:55:10.217Z,10.99
2022-11-12T16:58:30.828Z,10.97
2022-11-12T17:01:51.199Z,10.92
2022-11-12T17:05:18.034Z,10.94
2022-11-12T17:08:38.622Z,11.02
2022-11-12T17:11:59.406Z,11.12
2022-11-12T17:15:20.068Z,10.82
2022-11-12T17:18:40.567Z,10.71
2022-11-12T17:22:00.981Z,10.82
2022-11-12T17:25:21.491Z,10.66
2022-11-12T17:28:41.883Z,10.66
2022-11-12T17:32:02.690Z,10.67
2022-11-12T17:35:23.242Z,10.49
2022-11-12T17:38:44.511Z,10.62
2022-11-12T17:42:05.299Z,10.47
2022-11-12T17:45:25.762Z,10.46
2022-11-12T17:48:46.154Z,10.54
2022-11-12T17:52:06.602Z,10.44
2022-11-12T17:55:26.951Z,10.43
2022-11-12T17:58:48.947Z,10.48
2022-11-12T18:02:12.205Z,10.41
2022-11-12T18:05:32.493Z,10.46
2022-11-12T18:08:57.316Z,10.47
2022-11-12T18:12:18.063Z,10.57
2022-11-12T18:15:38.742Z,10.50
2022-11-12T18:18:59.363Z,10.65
2022-11-12T18:22:20.702Z,10.71
2022-11-12T18:25:41.080Z,10.93
2022-11-12T18:29:01.545Z,10.79
2022-11-12T18:32:21.853Z,10.81
2022-11-12T18:35:42.382Z,10.75
2022-11-12T18:39:04.280Z,10.82
2022-11-12T18:42:25.048Z,10.86
2022-11-12T18:45:45.274Z,10.54
2022-11-12T18:49:05.795Z,10.84
2022-11-12T18:52:26.642Z,10.92
2022-11-12T18:55:47.069Z,10.94
2022-11-12T18:59:07.651Z,11.24
2022-11-12T19:02:28.140Z,10.91
2022-11-12T19:05:48.547Z,11.06
2022-11-12T19:09:11.802Z,10.96
2022-11-12T19:12:32.368Z,11.22
2022-11-12T19:15:52.888Z,11.32
2022-11-12T19:19:15.180Z,11.31
2022-11-12T19:22:36.004Z,11.14
2022-11-12T19:25:56.763Z,11.01
2022-11-12T19:29:17.402Z,10.81
2022-11-12T19:32:37.735Z,10.73
2022-11-12T19:36:01.003Z,10.76
2022-11-12T19:39:25.957Z,10.79
2022-11-12T19:42:48.065Z,10.66
2022-11-12T19:46:09.634Z,10.50
2022-11-12T19:49:30.282Z,10.53
2022-11-12T19:52:54.405Z,10.85
2022-11-12T19:56:17.202Z,10.73
2022-11-12T19:59:40.087Z,10.60
2022-11-12T20:03:00.962Z,10.53
2022-11-12T20:06:25.569Z,10.80
2022-11-12T20:09:46.257Z,11.34
2022-11-12T20:13:07.311Z,11.05
2022-11-12T20:16:28.049Z,10.94
2022-11-12T20:19:48.432Z,11.09
2022-11-12T20:23:08.865Z,11.13
2022-11-12T20:26:29.437Z,11.11
2022-11-12T20:29:50.072Z,11.04
2022-11-12T20:33:12.881Z,10.84
2022-11-12T20:36:33.633Z,11.40
2022-11-12T20:39:54.221Z,11.34
2022-11-12T20:43:15.476Z,11.47
2022-11-12T20:46:35.901Z,11.97
2022-11-12T20:49:56.362Z,11.65
2022-11-12T20:53:16.698Z,11.79
2022-11-12T20:56:37.405Z,11.68
2022-11-12T20:59:58.254Z,11.77
2022-11-12T21:03:18.503Z,11.78
2022-11-12T21:06:39.047Z,11.57
2022-11-12T21:09:59.894Z,11.54
2022-11-12T21:13:21.745Z,11.15
2022-11-12T21:16:42.278Z,11.29
2022-11-12T21:20:02.679Z,11.12
2022-11-12T21:23:23.894Z,11.19
2022-11-12T21:26:44.630Z,11.30
2022-11-12T21:30:05.862Z,11.15
2022-11-12T21:33:26.387Z,11.30
2022-11-12T21:36:47.331Z,11.03
2022-11-12T21:40:08.838Z,11.03
2022-11-12T21:43:29.672Z,11.08
2022-11-12T21:46:50.123Z,11.41
2022-11-12T21:50:10.767Z,11.51
2022-11-12T21:53:31.161Z,11.21
2022-11-12T21:56:51.550Z,11.42
2022-11-12T22:00:40.462Z,11.60
2022-11-12T22:03:54.625Z,11.45
2022-11-12T22:07:15.013Z,11.24
2022-11-12T22:10:35.955Z,11.14
2022-11-12T22:13:56.604Z,11.30
2022-11-12T22:17:17.109Z,10.92
2022-11-12T22:20:37.506Z,10.82
2022-11-12T22:23:58.128Z,10.62
2022-11-12T22:27:18.847Z,10.80
2022-11-12T22:30:39.206Z,10.72
2022-11-12T22:34:00.754Z,10.60
2022-11-12T22:37:21.620Z,10.67
2022-11-12T22:40:46.961Z,10.54
2022-11-12T22:44:07.517Z,10.57
2022-11-12T22:47:28.019Z,10.44
2022-11-12T22:50:48.555Z,10.63
2022-11-12T22:54:10.242Z,10.70
2022-11-12T22:57:30.867Z,10.57
2022-11-12T23:00:51.220Z,10.59
2022-11-12T23:04:11.781Z,10.65
2022-11-12T23:07:32.143Z,10.65
2022-11-12T23:10:52.624Z,10.71
2022-11-12T23:14:13.049Z,10.77
2022-11-12T23:17:33.391Z,10.77
2022-11-12T23:20:53.807Z,10.82
2022-11-12T23:24:14.358Z,10.88
2022-11-12T23:27:34.711Z,11.12
2022-11-12T23:30:55.101Z,11.15
2022-11-12T23:34:15.914Z,11.34
2022-11-12T23:37:36.417Z,11.48
2022-11-12T23:40:57.056Z,11.53
2022-11-12T23:44:17.903Z,11.58
2022-11-12T23:47:38.489Z,11.54
2022-11-12T23:51:07.880Z,11.59
2022-11-12T23:54:28.236Z,11.45
2022-11-12T23:57:48.766Z,11.54
